sensor_id;sensor_type;location;lat;lon;timestamp;P1;durP1;ratioP1;P2;durP2;ratioP2
57800;SDS011;43627;42.728;23.256;2022-07-29T00:02:26;16.70;;;12.18;;
57800;SDS011;43627;42.728;23.256;2022-07-29T00:04:54;14.98;;;11.63;;
57800;SDS011;43627;42.728;23.256;2022-07-29T00:07:20;17.38;;;12.13;;
57800;SDS011;43627;42.728;23.256;2022-07-29T00:09:47;16.27;;;12.82;;
57800;SDS011;43627;42.728;23.256;2022-07-29T00:12:17;16.08;;;12.35;;
57800;SDS011;43627;42.728;23.256;2022-07-29T00:14:52;15.93;;;12.57;;
57800;SDS011;43627;42.728;23.256;2022-07-29T00:17:20;14.35;;;12.15;;
57800;SDS011;43627;42.728;23.256;2022-07-29T00:19:47;15.82;;;12.30;;
57800;SDS011;43627;42.728;23.256;2022-07-29T00:22:14;15.05;;;11.65;;
57800;SDS011;43627;42.728;23.256;2022-07-29T00:24:40;18.80;;;12.57;;
57800;SDS011;43627;42.728;23.256;2022-07-29T00:27:07;20.40;;;13.15;;
57800;SDS011;43627;42.728;23.256;2022-07-29T00:29:34;16.58;;;12.40;;
57800;SDS011;43627;42.728;23.256;2022-07-29T00:32:01;17.77;;;13.57;;
57800;SDS011;43627;42.728;23.256;2022-07-29T00:34:28;17.85;;;12.73;;
57800;SDS011;43627;42.728;23.256;2022-07-29T00:37:14;19.75;;;14.38;;
57800;SDS011;43627;42.728;23.256;2022-07-29T00:39:40;20.13;;;14.93;;
57800;SDS011;43627;42.728;23.256;2022-07-29T00:42:07;22.08;;;15.45;;
57800;SDS011;43627;42.728;23.256;2022-07-29T00:44:37;23.70;;;15.63;;
57800;SDS011;43627;42.728;23.256;2022-07-29T00:47:06;22.23;;;15.00;;
57800;SDS011;43627;42.728;23.256;2022-07-29T00:49:34;18.73;;;14.98;;
57800;SDS011;43627;42.728;23.256;2022-07-29T00:52:01;24.77;;;15.23;;
57800;SDS011;43627;42.728;23.256;2022-07-29T00:54:29;20.27;;;15.35;;
57800;SDS011;43627;42.728;23.256;2022-07-29T00:56:59;18.58;;;15.57;;
57800;SDS011;43627;42.728;23.256;2022-07-29T00:59:26;22.55;;;15.52;;
57800;SDS011;43627;42.728;23.256;2022-07-29T01:02:01;19.27;;;15.18;;
57800;SDS011;43627;42.728;23.256;2022-07-29T01:04:29;18.88;;;15.10;;
57800;SDS011;43627;42.728;23.256;2022-07-29T01:06:57;20.88;;;14.77;;
57800;SDS011;43627;42.728;23.256;2022-07-29T01:09:26;19.35;;;14.57;;
57800;SDS011;43627;42.728;23.256;2022-07-29T01:12:13;22.77;;;16.27;;
57800;SDS011;43627;42.728;23.256;2022-07-29T01:14:46;20.60;;;15.38;;
57800;SDS011;43627;42.728;23.256;2022-07-29T01:17:18;20.88;;;15.02;;
57800;SDS011;43627;42.728;23.256;2022-07-29T01:28:44;20.75;;;15.40;;
57800;SDS011;43627;42.728;23.256;2022-07-29T01:31:22;20.17;;;15.40;;
57800;SDS011;43627;42.728;23.256;2022-07-29T01:34:07;16.83;;;14.98;;
57800;SDS011;43627;42.728;23.256;2022-07-29T01:36:43;25.20;;;16.65;;
57800;SDS011;43627;42.728;23.256;2022-07-29T01:39:46;21.17;;;15.35;;
57800;SDS011;43627;42.728;23.256;2022-07-29T01:47:41;20.90;;;14.80;;
57800;SDS011;43627;42.728;23.256;2022-07-29T01:50:14;18.30;;;15.40;;
57800;SDS011;43627;42.728;23.256;2022-07-29T01:52:49;19.43;;;15.50;;
57800;SDS011;43627;42.728;23.256;2022-07-29T01:55:31;21.58;;;15.73;;
57800;SDS011;43627;42.728;23.256;2022-07-29T01:58:01;20.58;;;15.77;;
57800;SDS011;43627;42.728;23.256;2022-07-29T02:00:32;22.15;;;15.43;;
57800;SDS011;43627;42.728;23.256;2022-07-29T02:03:00;19.20;;;15.20;;
57800;SDS011;43627;42.728;23.256;2022-07-29T02:05:30;20.15;;;15.88;;
57800;SDS011;43627;42.728;23.256;2022-07-29T02:07:59;19.27;;;15.02;;
57800;SDS011;43627;42.728;23.256;2022-07-29T02:10:28;19.25;;;15.43;;
57800;SDS011;43627;42.728;23.256;2022-07-29T02:12:57;22.73;;;15.50;;
57800;SDS011;43627;42.728;23.256;2022-07-29T02:15:26;17.88;;;14.27;;
57800;SDS011;43627;42.728;23.256;2022-07-29T02:17:56;19.88;;;16.25;;
57800;SDS011;43627;42.728;23.256;2022-07-29T02:20:26;18.75;;;14.05;;
57800;SDS011;43627;42.728;23.256;2022-07-29T02:22:55;17.05;;;14.05;;
57800;SDS011;43627;42.728;23.256;2022-07-29T02:25:23;22.95;;;14.77;;
57800;SDS011;43627;42.728;23.256;2022-07-29T02:28:02;20.27;;;14.40;;
57800;SDS011;43627;42.728;23.256;2022-07-29T02:30:31;25.70;;;16.02;;
57800;SDS011;43627;42.728;23.256;2022-07-29T02:32:59;20.88;;;14.32;;
57800;SDS011;43627;42.728;23.256;2022-07-29T02:35:27;20.17;;;14.43;;
57800;SDS011;43627;42.728;23.256;2022-07-29T02:38:00;19.10;;;15.23;;
57800;SDS011;43627;42.728;23.256;2022-07-29T02:40:46;19.70;;;14.93;;
57800;SDS011;43627;42.728;23.256;2022-07-29T02:43:15;21.23;;;15.07;;
57800;SDS011;43627;42.728;23.256;2022-07-29T02:45:44;20.77;;;14.68;;
57800;SDS011;43627;42.728;23.256;2022-07-29T02:48:17;20.33;;;14.73;;
57800;SDS011;43627;42.728;23.256;2022-07-29T02:50:50;22.52;;;15.02;;
57800;SDS011;43627;42.728;23.256;2022-07-29T02:53:25;19.15;;;15.15;;
57800;SDS011;43627;42.728;23.256;2022-07-29T02:58:32;19.08;;;14.50;;
57800;SDS011;43627;42.728;23.256;2022-07-29T03:01:04;24.05;;;15.70;;
57800;SDS011;43627;42.728;23.256;2022-07-29T03:03:41;21.73;;;14.63;;
57800;SDS011;43627;42.728;23.256;2022-07-29T03:06:12;20.77;;;16.50;;
57800;SDS011;43627;42.728;23.256;2022-07-29T03:09:01;22.20;;;16.45;;
57800;SDS011;43627;42.728;23.256;2022-07-29T03:11:31;24.92;;;16.80;;
57800;SDS011;43627;42.728;23.256;2022-07-29T03:14:16;25.60;;;18.55;;
57800;SDS011;43627;42.728;23.256;2022-07-29T03:16:46;31.90;;;19.73;;
57800;SDS011;43627;42.728;23.256;2022-07-29T03:19:13;27.15;;;18.92;;
57800;SDS011;43627;42.728;23.256;2022-07-29T03:21:41;20.25;;;15.57;;
57800;SDS011;43627;42.728;23.256;2022-07-29T03:24:07;20.95;;;17.02;;
57800;SDS011;43627;42.728;23.256;2022-07-29T03:26:37;19.75;;;15.98;;
57800;SDS011;43627;42.728;23.256;2022-07-29T03:29:04;23.77;;;17.48;;
57800;SDS011;43627;42.728;23.256;2022-07-29T03:31:32;26.60;;;17.27;;
57800;SDS011;43627;42.728;23.256;2022-07-29T03:33:59;23.35;;;17.35;;
57800;SDS011;43627;42.728;23.256;2022-07-29T03:36:26;27.83;;;17.38;;
57800;SDS011;43627;42.728;23.256;2022-07-29T03:38:53;23.00;;;15.30;;
57800;SDS011;43627;42.728;23.256;2022-07-29T03:41:20;22.77;;;15.75;;
57800;SDS011;43627;42.728;23.256;2022-07-29T03:43:49;18.63;;;14.73;;
57800;SDS011;43627;42.728;23.256;2022-07-29T03:46:17;23.13;;;15.75;;
57800;SDS011;43627;42.728;23.256;2022-07-29T03:48:50;25.30;;;15.20;;
57800;SDS011;43627;42.728;23.256;2022-07-29T03:51:21;22.33;;;15.85;;
57800;SDS011;43627;42.728;23.256;2022-07-29T03:53:58;21.67;;;16.35;;
57800;SDS011;43627;42.728;23.256;2022-07-29T03:56:26;24.85;;;16.60;;
57800;SDS011;43627;42.728;23.256;2022-07-29T03:58:55;22.55;;;15.30;;
57800;SDS011;43627;42.728;23.256;2022-07-29T04:01:22;18.27;;;13.75;;
57800;SDS011;43627;42.728;23.256;2022-07-29T04:03:50;28.92;;;14.30;;
57800;SDS011;43627;42.728;23.256;2022-07-29T04:06:17;18.30;;;13.30;;
57800;SDS011;43627;42.728;23.256;2022-07-29T04:08:44;21.63;;;14.15;;
57800;SDS011;43627;42.728;23.256;2022-07-29T04:11:11;21.98;;;14.25;;
57800;SDS011;43627;42.728;23.256;2022-07-29T04:13:38;19.38;;;13.27;;
57800;SDS011;43627;42.728;23.256;2022-07-29T04:16:05;17.90;;;14.85;;
57800;SDS011;43627;42.728;23.256;2022-07-29T04:18:32;22.30;;;14.95;;
57800;SDS011;43627;42.728;23.256;2022-07-29T04:20:59;22.63;;;16.05;;
57800;SDS011;43627;42.728;23.256;2022-07-29T04:23:27;18.17;;;14.80;;
57800;SDS011;43627;42.728;23.256;2022-07-29T04:25:58;20.05;;;13.45;;
57800;SDS011;43627;42.728;23.256;2022-07-29T04:28:27;21.08;;;14.00;;
57800;SDS011;43627;42.728;23.256;2022-07-29T04:30:54;18.50;;;13.38;;
57800;SDS011;43627;42.728;23.256;2022-07-29T04:33:21;23.67;;;14.10;;
57800;SDS011;43627;42.728;23.256;2022-07-29T04:35:50;21.00;;;13.45;;
57800;SDS011;43627;42.728;23.256;2022-07-29T04:38:20;15.27;;;13.02;;
57800;SDS011;43627;42.728;23.256;2022-07-29T04:40:48;17.45;;;13.60;;
57800;SDS011;43627;42.728;23.256;2022-07-29T04:43:15;21.58;;;14.52;;
57800;SDS011;43627;42.728;23.256;2022-07-29T04:45:47;19.05;;;14.90;;
57800;SDS011;43627;42.728;23.256;2022-07-29T04:48:14;26.65;;;14.05;;
57800;SDS011;43627;42.728;23.256;2022-07-29T04:50:41;19.75;;;14.55;;
57800;SDS011;43627;42.728;23.256;2022-07-29T04:53:08;19.85;;;14.10;;
57800;SDS011;43627;42.728;23.256;2022-07-29T04:55:35;18.05;;;14.18;;
57800;SDS011;43627;42.728;23.256;2022-07-29T04:58:04;20.55;;;14.93;;
57800;SDS011;43627;42.728;23.256;2022-07-29T05:00:31;19.30;;;14.23;;
57800;SDS011;43627;42.728;23.256;2022-07-29T05:02:58;20.73;;;14.68;;
57800;SDS011;43627;42.728;23.256;2022-07-29T05:05:26;24.13;;;15.60;;
57800;SDS011;43627;42.728;23.256;2022-07-29T05:07:52;20.98;;;14.80;;
57800;SDS011;43627;42.728;23.256;2022-07-29T05:10:19;18.73;;;14.15;;
57800;SDS011;43627;42.728;23.256;2022-07-29T05:12:46;16.48;;;13.70;;
57800;SDS011;43627;42.728;23.256;2022-07-29T05:15:13;19.58;;;14.25;;
57800;SDS011;43627;42.728;23.256;2022-07-29T05:17:39;18.52;;;13.07;;
57800;SDS011;43627;42.728;23.256;2022-07-29T05:20:07;18.88;;;13.88;;
57800;SDS011;43627;42.728;23.256;2022-07-29T05:22:34;19.50;;;13.40;;
57800;SDS011;43627;42.728;23.256;2022-07-29T05:25:01;17.15;;;14.55;;
57800;SDS011;43627;42.728;23.256;2022-07-29T05:27:34;24.10;;;14.45;;
57800;SDS011;43627;42.728;23.256;2022-07-29T05:30:02;19.35;;;13.73;;
57800;SDS011;43627;42.728;23.256;2022-07-29T05:32:29;22.30;;;15.15;;
57800;SDS011;43627;42.728;23.256;2022-07-29T05:34:56;23.10;;;15.82;;
57800;SDS011;43627;42.728;23.256;2022-07-29T05:37:22;29.98;;;16.20;;
57800;SDS011;43627;42.728;23.256;2022-07-29T05:39:49;22.45;;;15.48;;
57800;SDS011;43627;42.728;23.256;2022-07-29T05:42:23;25.48;;;15.35;;
57800;SDS011;43627;42.728;23.256;2022-07-29T05:44:50;27.17;;;16.58;;
57800;SDS011;43627;42.728;23.256;2022-07-29T05:47:17;22.23;;;15.65;;
57800;SDS011;43627;42.728;23.256;2022-07-29T05:49:44;26.02;;;16.48;;
57800;SDS011;43627;42.728;23.256;2022-07-29T05:52:12;24.77;;;15.25;;
57800;SDS011;43627;42.728;23.256;2022-07-29T05:54:39;24.90;;;14.93;;
57800;SDS011;43627;42.728;23.256;2022-07-29T05:57:06;21.50;;;13.98;;
57800;SDS011;43627;42.728;23.256;2022-07-29T05:59:36;31.70;;;21.58;;
57800;SDS011;43627;42.728;23.256;2022-07-29T06:02:03;27.00;;;16.40;;
57800;SDS011;43627;42.728;23.256;2022-07-29T06:04:31;23.08;;;16.13;;
57800;SDS011;43627;42.728;23.256;2022-07-29T06:06:59;25.52;;;16.48;;
57800;SDS011;43627;42.728;23.256;2022-07-29T06:09:26;21.50;;;15.43;;
57800;SDS011;43627;42.728;23.256;2022-07-29T06:11:54;23.75;;;15.25;;
57800;SDS011;43627;42.728;23.256;2022-07-29T06:14:21;23.83;;;15.18;;
57800;SDS011;43627;42.728;23.256;2022-07-29T06:16:47;27.88;;;15.50;;
57800;SDS011;43627;42.728;23.256;2022-07-29T06:19:14;21.65;;;14.15;;
57800;SDS011;43627;42.728;23.256;2022-07-29T06:21:42;18.33;;;14.15;;
57800;SDS011;43627;42.728;23.256;2022-07-29T06:24:13;16.92;;;14.07;;
57800;SDS011;43627;42.728;23.256;2022-07-29T06:26:41;17.80;;;14.75;;
57800;SDS011;43627;42.728;23.256;2022-07-29T06:29:08;19.52;;;13.88;;
57800;SDS011;43627;42.728;23.256;2022-07-29T06:31:37;27.70;;;19.15;;
57800;SDS011;43627;42.728;23.256;2022-07-29T06:34:04;22.45;;;16.67;;
57800;SDS011;43627;42.728;23.256;2022-07-29T06:36:33;24.40;;;15.05;;
57800;SDS011;43627;42.728;23.256;2022-07-29T06:39:06;21.60;;;13.98;;
57800;SDS011;43627;42.728;23.256;2022-07-29T06:41:33;24.23;;;14.93;;
57800;SDS011;43627;42.728;23.256;2022-07-29T06:44:01;17.85;;;13.90;;
57800;SDS011;43627;42.728;23.256;2022-07-29T06:46:28;19.48;;;13.10;;
57800;SDS011;43627;42.728;23.256;2022-07-29T06:48:55;16.45;;;11.93;;
57800;SDS011;43627;42.728;23.256;2022-07-29T06:51:22;24.92;;;12.30;;
57800;SDS011;43627;42.728;23.256;2022-07-29T06:53:52;28.85;;;17.60;;
57800;SDS011;43627;42.728;23.256;2022-07-29T06:56:25;19.90;;;11.85;;
57800;SDS011;43627;42.728;23.256;2022-07-29T06:58:51;18.65;;;9.70;;
57800;SDS011;43627;42.728;23.256;2022-07-29T07:01:18;17.60;;;10.98;;
57800;SDS011;43627;42.728;23.256;2022-07-29T07:03:47;15.30;;;9.98;;
57800;SDS011;43627;42.728;23.256;2022-07-29T07:06:14;14.85;;;11.70;;
57800;SDS011;43627;42.728;23.256;2022-07-29T07:08:40;20.15;;;11.65;;
57800;SDS011;43627;42.728;23.256;2022-07-29T07:11:08;21.80;;;10.07;;
57800;SDS011;43627;42.728;23.256;2022-07-29T07:13:34;14.98;;;9.88;;
57800;SDS011;43627;42.728;23.256;2022-07-29T07:16:02;13.98;;;8.77;;
57800;SDS011;43627;42.728;23.256;2022-07-29T07:18:30;9.25;;;4.68;;
57800;SDS011;43627;42.728;23.256;2022-07-29T07:20:57;9.48;;;6.32;;
57800;SDS011;43627;42.728;23.256;2022-07-29T07:23:25;7.10;;;4.90;;
57800;SDS011;43627;42.728;23.256;2022-07-29T07:25:51;5.88;;;4.50;;
57800;SDS011;43627;42.728;23.256;2022-07-29T07:28:19;9.25;;;4.40;;
57800;SDS011;43627;42.728;23.256;2022-07-29T07:30:50;5.40;;;3.95;;
57800;SDS011;43627;42.728;23.256;2022-07-29T07:33:17;6.95;;;3.58;;
57800;SDS011;43627;42.728;23.256;2022-07-29T07:35:44;7.13;;;3.60;;
57800;SDS011;43627;42.728;23.256;2022-07-29T07:38:11;10.23;;;3.10;;
57800;SDS011;43627;42.728;23.256;2022-07-29T07:40:38;7.45;;;4.03;;
57800;SDS011;43627;42.728;23.256;2022-07-29T07:43:05;8.23;;;3.65;;
57800;SDS011;43627;42.728;23.256;2022-07-29T07:45:31;7.97;;;3.78;;
57800;SDS011;43627;42.728;23.256;2022-07-29T07:48:03;6.05;;;3.22;;
57800;SDS011;43627;42.728;23.256;2022-07-29T07:50:31;5.20;;;3.60;;
57800;SDS011;43627;42.728;23.256;2022-07-29T07:52:58;6.53;;;4.03;;
57800;SDS011;43627;42.728;23.256;2022-07-29T07:55:25;6.43;;;3.95;;
57800;SDS011;43627;42.728;23.256;2022-07-29T07:57:53;14.30;;;8.23;;
57800;SDS011;43627;42.728;23.256;2022-07-29T08:00:21;8.07;;;6.20;;
57800;SDS011;43627;42.728;23.256;2022-07-29T08:02:49;14.38;;;3.97;;
57800;SDS011;43627;42.728;23.256;2022-07-29T08:05:16;12.98;;;4.20;;
57800;SDS011;43627;42.728;23.256;2022-07-29T08:07:44;4.55;;;3.75;;
57800;SDS011;43627;42.728;23.256;2022-07-29T08:10:12;7.75;;;3.60;;
57800;SDS011;43627;42.728;23.256;2022-07-29T08:12:41;7.18;;;3.65;;
57800;SDS011;43627;42.728;23.256;2022-07-29T08:15:07;12.50;;;4.15;;
57800;SDS011;43627;42.728;23.256;2022-07-29T08:17:35;6.78;;;4.03;;
57800;SDS011;43627;42.728;23.256;2022-07-29T08:20:01;4.40;;;4.00;;
57800;SDS011;43627;42.728;23.256;2022-07-29T08:22:29;5.03;;;4.00;;
57800;SDS011;43627;42.728;23.256;2022-07-29T08:24:55;11.48;;;3.75;;
57800;SDS011;43627;42.728;23.256;2022-07-29T08:27:22;5.50;;;3.63;;
57800;SDS011;43627;42.728;23.256;2022-07-29T08:30:08;4.40;;;3.65;;
57800;SDS011;43627;42.728;23.256;2022-07-29T08:32:36;6.95;;;4.05;;
57800;SDS011;43627;42.728;23.256;2022-07-29T08:35:20;6.55;;;3.83;;
57800;SDS011;43627;42.728;23.256;2022-07-29T08:37:48;5.05;;;3.53;;
57800;SDS011;43627;42.728;23.256;2022-07-29T08:40:15;9.20;;;3.65;;
57800;SDS011;43627;42.728;23.256;2022-07-29T08:42:42;5.47;;;3.85;;
57800;SDS011;43627;42.728;23.256;2022-07-29T08:45:09;4.82;;;3.38;;
57800;SDS011;43627;42.728;23.256;2022-07-29T08:47:36;7.82;;;5.30;;
57800;SDS011;43627;42.728;23.256;2022-07-29T08:50:06;5.05;;;3.45;;
57800;SDS011;43627;42.728;23.256;2022-07-29T08:52:35;5.65;;;4.45;;
57800;SDS011;43627;42.728;23.256;2022-07-29T08:55:07;4.88;;;4.13;;
57800;SDS011;43627;42.728;23.256;2022-07-29T08:57:35;4.93;;;3.80;;
57800;SDS011;43627;42.728;23.256;2022-07-29T09:00:05;6.82;;;4.30;;
57800;SDS011;43627;42.728;23.256;2022-07-29T09:02:40;6.28;;;4.30;;
57800;SDS011;43627;42.728;23.256;2022-07-29T09:05:12;4.25;;;3.33;;
57800;SDS011;43627;42.728;23.256;2022-07-29T09:07:39;5.55;;;3.13;;
57800;SDS011;43627;42.728;23.256;2022-07-29T09:10:09;6.18;;;2.92;;
57800;SDS011;43627;42.728;23.256;2022-07-29T09:12:36;3.83;;;3.20;;
57800;SDS011;43627;42.728;23.256;2022-07-29T09:15:03;3.95;;;3.35;;
57800;SDS011;43627;42.728;23.256;2022-07-29T09:17:43;4.75;;;3.30;;
57800;SDS011;43627;42.728;23.256;2022-07-29T09:20:12;10.70;;;3.88;;
57800;SDS011;43627;42.728;23.256;2022-07-29T09:22:42;4.30;;;3.20;;
57800;SDS011;43627;42.728;23.256;2022-07-29T09:25:11;5.03;;;3.40;;
57800;SDS011;43627;42.728;23.256;2022-07-29T09:27:38;12.77;;;3.80;;
57800;SDS011;43627;42.728;23.256;2022-07-29T09:30:06;4.05;;;2.80;;
57800;SDS011;43627;42.728;23.256;2022-07-29T09:32:58;5.95;;;3.13;;
57800;SDS011;43627;42.728;23.256;2022-07-29T09:35:29;5.63;;;2.63;;
57800;SDS011;43627;42.728;23.256;2022-07-29T09:37:56;3.95;;;2.80;;
57800;SDS011;43627;42.728;23.256;2022-07-29T09:40:25;4.32;;;3.17;;
57800;SDS011;43627;42.728;23.256;2022-07-29T09:42:54;3.38;;;2.97;;
57800;SDS011;43627;42.728;23.256;2022-07-29T09:47:54;5.30;;;3.17;;
57800;SDS011;43627;42.728;23.256;2022-07-29T09:50:34;5.65;;;2.72;;
57800;SDS011;43627;42.728;23.256;2022-07-29T09:53:05;9.32;;;3.35;;
57800;SDS011;43627;42.728;23.256;2022-07-29T09:55:31;7.80;;;3.15;;
57800;SDS011;43627;42.728;23.256;2022-07-29T09:58:19;6.25;;;3.40;;
57800;SDS011;43627;42.728;23.256;2022-07-29T10:00:47;5.20;;;3.10;;
57800;SDS011;43627;42.728;23.256;2022-07-29T10:03:16;6.93;;;3.20;;
57800;SDS011;43627;42.728;23.256;2022-07-29T10:05:44;5.78;;;3.60;;
57800;SDS011;43627;42.728;23.256;2022-07-29T10:08:11;6.03;;;3.42;;
57800;SDS011;43627;42.728;23.256;2022-07-29T10:10:39;5.10;;;3.10;;
57800;SDS011;43627;42.728;23.256;2022-07-29T10:13:12;7.97;;;3.20;;
57800;SDS011;43627;42.728;23.256;2022-07-29T10:15:42;4.10;;;3.58;;
57800;SDS011;43627;42.728;23.256;2022-07-29T10:18:12;13.80;;;3.67;;
57800;SDS011;43627;42.728;23.256;2022-07-29T10:20:40;5.20;;;3.60;;
57800;SDS011;43627;42.728;23.256;2022-07-29T10:23:08;9.10;;;4.05;;
57800;SDS011;43627;42.728;23.256;2022-07-29T10:25:35;7.30;;;3.90;;
57800;SDS011;43627;42.728;23.256;2022-07-29T10:28:01;7.65;;;4.00;;
57800;SDS011;43627;42.728;23.256;2022-07-29T10:30:29;4.70;;;3.13;;
57800;SDS011;43627;42.728;23.256;2022-07-29T10:41:37;5.55;;;2.70;;
57800;SDS011;43627;42.728;23.256;2022-07-29T10:44:16;3.30;;;3.00;;
57800;SDS011;43627;42.728;23.256;2022-07-29T10:46:49;5.20;;;3.00;;
57800;SDS011;43627;42.728;23.256;2022-07-29T10:49:17;3.72;;;2.90;;
57800;SDS011;43627;42.728;23.256;2022-07-29T10:57:11;4.55;;;3.20;;
57800;SDS011;43627;42.728;23.256;2022-07-29T10:59:39;5.45;;;3.30;;
57800;SDS011;43627;42.728;23.256;2022-07-29T11:02:40;5.55;;;3.70;;
57800;SDS011;43627;42.728;23.256;2022-07-29T11:05:15;4.15;;;3.42;;
57800;SDS011;43627;42.728;23.256;2022-07-29T11:10:46;7.57;;;3.30;;
57800;SDS011;43627;42.728;23.256;2022-07-29T11:13:46;5.13;;;3.30;;
57800;SDS011;43627;42.728;23.256;2022-07-29T11:16:15;5.80;;;3.65;;
57800;SDS011;43627;42.728;23.256;2022-07-29T11:21:36;5.40;;;3.28;;
57800;SDS011;43627;42.728;23.256;2022-07-29T11:24:24;3.50;;;3.08;;
57800;SDS011;43627;42.728;23.256;2022-07-29T11:27:09;6.85;;;3.28;;
57800;SDS011;43627;42.728;23.256;2022-07-29T11:29:39;3.72;;;2.97;;
57800;SDS011;43627;42.728;23.256;2022-07-29T11:32:15;10.43;;;3.35;;
57800;SDS011;43627;42.728;23.256;2022-07-29T11:34:49;5.90;;;3.42;;
57800;SDS011;43627;42.728;23.256;2022-07-29T11:37:46;5.65;;;4.10;;
57800;SDS011;43627;42.728;23.256;2022-07-29T11:40:36;4.80;;;3.60;;
57800;SDS011;43627;42.728;23.256;2022-07-29T11:43:03;3.70;;;3.38;;
57800;SDS011;43627;42.728;23.256;2022-07-29T11:45:45;14.02;;;3.20;;
57800;SDS011;43627;42.728;23.256;2022-07-29T11:48:16;5.70;;;4.13;;
57800;SDS011;43627;42.728;23.256;2022-07-29T11:50:58;6.47;;;3.72;;
57800;SDS011;43627;42.728;23.256;2022-07-29T11:53:25;5.35;;;3.33;;
57800;SDS011;43627;42.728;23.256;2022-07-29T11:55:57;6.45;;;3.83;;
57800;SDS011;43627;42.728;23.256;2022-07-29T11:58:25;4.28;;;3.67;;
57800;SDS011;43627;42.728;23.256;2022-07-29T12:00:53;4.80;;;3.63;;
57800;SDS011;43627;42.728;23.256;2022-07-29T12:03:28;11.07;;;3.47;;
57800;SDS011;43627;42.728;23.256;2022-07-29T12:06:00;4.90;;;4.20;;
57800;SDS011;43627;42.728;23.256;2022-07-29T12:08:27;4.95;;;3.72;;
57800;SDS011;43627;42.728;23.256;2022-07-29T12:10:54;5.15;;;3.90;;
57800;SDS011;43627;42.728;23.256;2022-07-29T12:13:21;5.28;;;3.80;;
57800;SDS011;43627;42.728;23.256;2022-07-29T12:16:03;4.65;;;4.20;;
57800;SDS011;43627;42.728;23.256;2022-07-29T12:18:30;5.38;;;3.75;;
57800;SDS011;43627;42.728;23.256;2022-07-29T12:21:00;4.93;;;3.50;;
57800;SDS011;43627;42.728;23.256;2022-07-29T12:23:33;7.00;;;3.58;;
57800;SDS011;43627;42.728;23.256;2022-07-29T12:26:04;4.65;;;3.45;;
57800;SDS011;43627;42.728;23.256;2022-07-29T12:28:39;6.30;;;4.35;;
57800;SDS011;43627;42.728;23.256;2022-07-29T12:31:08;4.13;;;3.70;;
57800;SDS011;43627;42.728;23.256;2022-07-29T12:34:00;6.82;;;4.35;;
57800;SDS011;43627;42.728;23.256;2022-07-29T12:36:27;4.72;;;3.65;;
57800;SDS011;43627;42.728;23.256;2022-07-29T12:38:53;5.57;;;4.38;;
57800;SDS011;43627;42.728;23.256;2022-07-29T12:41:21;7.25;;;4.30;;
57800;SDS011;43627;42.728;23.256;2022-07-29T12:43:52;5.15;;;3.72;;
57800;SDS011;43627;42.728;23.256;2022-07-29T12:46:20;5.70;;;4.63;;
57800;SDS011;43627;42.728;23.256;2022-07-29T12:48:50;5.03;;;3.92;;
57800;SDS011;43627;42.728;23.256;2022-07-29T12:51:28;4.90;;;4.40;;
57800;SDS011;43627;42.728;23.256;2022-07-29T12:54:04;6.32;;;4.07;;
57800;SDS011;43627;42.728;23.256;2022-07-29T12:56:40;6.78;;;4.10;;
57800;SDS011;43627;42.728;23.256;2022-07-29T12:59:14;11.40;;;4.07;;
57800;SDS011;43627;42.728;23.256;2022-07-29T13:01:44;7.10;;;4.53;;
57800;SDS011;43627;42.728;23.256;2022-07-29T13:04:31;6.68;;;4.82;;
57800;SDS011;43627;42.728;23.256;2022-07-29T13:07:05;8.20;;;3.80;;
57800;SDS011;43627;42.728;23.256;2022-07-29T13:09:40;4.95;;;3.75;;
57800;SDS011;43627;42.728;23.256;2022-07-29T13:12:08;10.77;;;4.15;;
57800;SDS011;43627;42.728;23.256;2022-07-29T13:14:38;5.70;;;4.80;;
57800;SDS011;43627;42.728;23.256;2022-07-29T13:19:35;7.18;;;3.92;;
57800;SDS011;43627;42.728;23.256;2022-07-29T13:22:07;4.75;;;4.25;;
57800;SDS011;43627;42.728;23.256;2022-07-29T13:24:48;8.10;;;5.22;;
57800;SDS011;43627;42.728;23.256;2022-07-29T13:27:19;6.07;;;4.22;;
57800;SDS011;43627;42.728;23.256;2022-07-29T13:29:47;7.60;;;4.78;;
57800;SDS011;43627;42.728;23.256;2022-07-29T13:32:17;7.40;;;5.13;;
57800;SDS011;43627;42.728;23.256;2022-07-29T13:34:53;8.45;;;4.72;;
57800;SDS011;43627;42.728;23.256;2022-07-29T13:37:20;5.57;;;4.97;;
57800;SDS011;43627;42.728;23.256;2022-07-29T13:39:47;10.55;;;5.10;;
57800;SDS011;43627;42.728;23.256;2022-07-29T13:42:18;5.50;;;4.75;;
57800;SDS011;43627;42.728;23.256;2022-07-29T13:44:45;7.40;;;5.40;;
57800;SDS011;43627;42.728;23.256;2022-07-29T13:47:12;6.05;;;4.45;;
57800;SDS011;43627;42.728;23.256;2022-07-29T13:49:39;5.90;;;5.18;;
57800;SDS011;43627;42.728;23.256;2022-07-29T13:52:05;7.72;;;4.13;;
57800;SDS011;43627;42.728;23.256;2022-07-29T13:54:33;5.15;;;4.50;;
57800;SDS011;43627;42.728;23.256;2022-07-29T13:57:08;6.15;;;4.50;;
57800;SDS011;43627;42.728;23.256;2022-07-29T13:59:37;6.60;;;4.30;;
57800;SDS011;43627;42.728;23.256;2022-07-29T14:02:08;4.25;;;3.85;;
57800;SDS011;43627;42.728;23.256;2022-07-29T14:04:36;7.70;;;4.60;;
57800;SDS011;43627;42.728;23.256;2022-07-29T14:07:05;6.63;;;4.30;;
57800;SDS011;43627;42.728;23.256;2022-07-29T14:09:32;5.07;;;4.43;;
57800;SDS011;43627;42.728;23.256;2022-07-29T14:12:07;6.90;;;4.90;;
57800;SDS011;43627;42.728;23.256;2022-07-29T14:14:34;6.93;;;5.10;;
57800;SDS011;43627;42.728;23.256;2022-07-29T14:17:02;9.45;;;5.07;;
57800;SDS011;43627;42.728;23.256;2022-07-29T14:19:29;7.25;;;4.82;;
57800;SDS011;43627;42.728;23.256;2022-07-29T14:21:58;7.70;;;5.32;;
57800;SDS011;43627;42.728;23.256;2022-07-29T14:24:25;7.80;;;4.30;;
57800;SDS011;43627;42.728;23.256;2022-07-29T14:26:52;4.78;;;4.28;;
57800;SDS011;43627;42.728;23.256;2022-07-29T14:29:19;5.88;;;4.45;;
57800;SDS011;43627;42.728;23.256;2022-07-29T14:31:45;5.43;;;4.60;;
57800;SDS011;43627;42.728;23.256;2022-07-29T14:34:12;5.43;;;4.20;;
57800;SDS011;43627;42.728;23.256;2022-07-29T14:36:39;5.95;;;4.65;;
57800;SDS011;43627;42.728;23.256;2022-07-29T14:39:06;4.68;;;4.28;;
57800;SDS011;43627;42.728;23.256;2022-07-29T14:41:32;6.47;;;4.65;;
57800;SDS011;43627;42.728;23.256;2022-07-29T14:43:59;5.70;;;4.60;;
57800;SDS011;43627;42.728;23.256;2022-07-29T14:46:27;7.07;;;4.35;;
57800;SDS011;43627;42.728;23.256;2022-07-29T14:48:54;4.60;;;4.20;;
57800;SDS011;43627;42.728;23.256;2022-07-29T14:51:21;10.10;;;5.75;;
57800;SDS011;43627;42.728;23.256;2022-07-29T14:53:47;4.80;;;4.40;;
57800;SDS011;43627;42.728;23.256;2022-07-29T14:56:14;5.75;;;5.10;;
57800;SDS011;43627;42.728;23.256;2022-07-29T14:59:01;5.03;;;4.28;;
57800;SDS011;43627;42.728;23.256;2022-07-29T15:01:27;4.80;;;4.30;;
57800;SDS011;43627;42.728;23.256;2022-07-29T15:03:55;6.25;;;4.40;;
57800;SDS011;43627;42.728;23.256;2022-07-29T15:06:25;5.57;;;4.18;;
57800;SDS011;43627;42.728;23.256;2022-07-29T15:08:52;12.80;;;4.45;;
57800;SDS011;43627;42.728;23.256;2022-07-29T15:11:20;9.10;;;4.65;;
57800;SDS011;43627;42.728;23.256;2022-07-29T15:13:46;8.82;;;4.25;;
57800;SDS011;43627;42.728;23.256;2022-07-29T15:16:13;5.22;;;4.13;;
57800;SDS011;43627;42.728;23.256;2022-07-29T15:18:40;5.15;;;4.65;;
57800;SDS011;43627;42.728;23.256;2022-07-29T15:21:07;5.72;;;4.57;;